createdAt,value
2018-02-21T00:00:49.386Z,39.78
2018-02-21T00:01:52.626Z,39.97
2018-02-21T00:02:55.854Z,40.10
2018-02-21T00:03:59.101Z,40.15
2018-02-21T00:05:02.333Z,41.80
2018-02-21T00:06:05.603Z,40.58
2018-02-21T00:07:08.840Z,42.30
2018-02-21T00:08:12.077Z,40.50
2018-02-21T00:09:15.306Z,38.92
2018-02-21T00:10:18.558Z,38.88
2018-02-21T00:11:21.806Z,39.97
2018-02-21T00:12:25.792Z,38.00
2018-02-21T00:13:29.825Z,38.03
2018-02-21T00:14:33.015Z,38.13
2018-02-21T00:15:36.243Z,38.60
2018-02-21T00:16:39.565Z,37.72
2018-02-21T00:17:42.786Z,37.88
2018-02-21T00:18:46.004Z,37.10
2018-02-21T00:19:50.041Z,38.65
2018-02-21T00:20:53.264Z,36.90
2018-02-21T00:21:56.510Z,37.10
2018-02-21T00:22:59.729Z,37.30
2018-02-21T00:24:03.073Z,35.90
2018-02-21T00:25:06.304Z,39.40
2018-02-21T00:26:09.536Z,39.15
2018-02-21T00:27:12.858Z,39.92
2018-02-21T00:28:16.050Z,40.08
2018-02-21T00:29:19.285Z,37.42
2018-02-21T00:30:22.516Z,38.50
2018-02-21T00:31:25.771Z,39.72
2018-02-21T00:32:28.982Z,39.38
2018-02-21T00:33:32.214Z,38.42
2018-02-21T00:34:35.544Z,39.30
2018-02-21T00:35:38.772Z,40.60
2018-02-21T00:36:41.990Z,37.20
2018-02-21T00:37:45.210Z,40.00
2018-02-21T00:38:48.572Z,38.78
2018-02-21T00:39:51.760Z,39.05
2018-02-21T00:40:54.993Z,40.03
2018-02-21T00:41:59.005Z,39.53
2018-02-21T00:43:02.234Z,40.20
2018-02-21T00:44:05.457Z,39.70
2018-02-21T00:45:08.672Z,39.60
2018-02-21T00:46:11.926Z,40.30
2018-02-21T00:47:15.905Z,40.33
2018-02-21T00:48:19.898Z,39.45
2018-02-21T00:49:23.116Z,40.28
2018-02-21T00:50:26.341Z,38.75
2018-02-21T00:51:29.573Z,39.95
2018-02-21T00:52:32.821Z,38.72
2018-02-21T00:53:36.090Z,43.08
2018-02-21T00:54:39.317Z,44.70
2018-02-21T00:55:43.679Z,40.17
2018-02-21T00:56:46.864Z,41.05
2018-02-21T00:57:50.172Z,38.80
2018-02-21T00:58:54.578Z,39.45
2018-02-21T00:59:57.815Z,39.50
2018-02-21T01:01:01.046Z,40.33
2018-02-21T01:02:05.081Z,44.25
2018-02-21T01:03:08.305Z,39.70
2018-02-21T01:04:11.541Z,42.50
2018-02-21T01:05:14.794Z,42.65
2018-02-21T01:06:18.100Z,40.05
2018-02-21T01:07:21.389Z,41.20
2018-02-21T01:08:24.611Z,40.47
2018-02-21T01:09:27.849Z,40.17
2018-02-21T01:10:31.823Z,41.67
2018-02-21T01:11:35.187Z,42.80
2018-02-21T01:12:38.391Z,40.03
2018-02-21T01:13:41.652Z,41.28
2018-02-21T01:14:44.857Z,41.40
2018-02-21T01:15:48.176Z,39.85
2018-02-21T01:16:51.404Z,40.85
2018-02-21T01:17:54.649Z,40.80
2018-02-21T01:18:57.945Z,39.03
2018-02-21T01:20:01.252Z,43.13
2018-02-21T01:21:04.451Z,39.05
2018-02-21T01:22:07.673Z,36.38
2018-02-21T01:23:10.983Z,39.78
2018-02-21T01:24:14.208Z,40.78
2018-02-21T01:25:17.431Z,42.50
2018-02-21T01:26:20.693Z,40.53
2018-02-21T01:27:24.690Z,39.67
2018-02-21T01:28:28.721Z,43.10
2018-02-21T01:29:31.990Z,43.17
2018-02-21T01:30:35.235Z,40.47
2018-02-21T01:31:38.436Z,39.50
2018-02-21T01:32:42.438Z,42.15
2018-02-21T01:33:46.417Z,42.00
2018-02-21T01:34:49.665Z,41.67
2018-02-21T01:35:52.890Z,43.10
2018-02-21T01:36:56.114Z,40.50
2018-02-21T01:37:59.371Z,39.45
2018-02-21T01:39:02.590Z,43.05
2018-02-21T01:40:05.815Z,43.80
2018-02-21T01:41:09.048Z,43.40
2018-02-21T01:42:12.366Z,42.22
2018-02-21T01:43:15.591Z,42.83
2018-02-21T01:44:19.583Z,42.45
2018-02-21T01:45:22.789Z,44.15
2018-02-21T01:46:26.201Z,43.38
2018-02-21T01:47:29.400Z,42.17
2018-02-21T01:48:32.626Z,40.85
2018-02-21T01:49:36.617Z,42.90
2018-02-21T01:50:52.297Z,41.08
2018-02-21T01:51:56.312Z,43.00
2018-02-21T01:53:00.363Z,43.72
2018-02-21T01:54:03.695Z,41.15
2018-02-21T01:55:07.694Z,40.50
2018-02-21T01:56:10.930Z,42.40
2018-02-21T01:57:14.162Z,42.30
2018-02-21T01:58:18.153Z,41.83
2018-02-21T01:59:22.166Z,40.12
2018-02-21T02:00:26.176Z,41.90
2018-02-21T02:01:29.417Z,44.85
2018-02-21T02:02:32.651Z,42.20
2018-02-21T02:03:35.928Z,41.85
2018-02-21T02:04:39.170Z,44.80
2018-02-21T02:05:42.535Z,43.80
2018-02-21T02:06:45.829Z,43.53
2018-02-21T02:07:49.036Z,46.95
2018-02-21T02:08:53.036Z,45.50
2018-02-21T02:09:57.047Z,45.42
2018-02-21T02:11:01.057Z,44.80
2018-02-21T02:12:04.336Z,42.65
2018-02-21T02:13:07.582Z,46.33
2018-02-21T02:14:10.824Z,44.33
2018-02-21T02:15:14.036Z,44.00
2018-02-21T02:16:17.271Z,45.47
2018-02-21T02:17:20.557Z,45.75
2018-02-21T02:18:23.791Z,46.72
2018-02-21T02:19:27.037Z,42.83
2018-02-21T02:20:30.314Z,44.83
2018-02-21T02:21:33.539Z,46.05
2018-02-21T02:22:36.768Z,49.35
2018-02-21T02:23:40.010Z,47.85
2018-02-21T02:24:43.238Z,44.83
2018-02-21T02:25:46.472Z,45.60
2018-02-21T02:26:49.700Z,48.00
2018-02-21T02:27:52.942Z,46.45
2018-02-21T02:28:56.164Z,44.60
2018-02-21T02:29:59.424Z,46.10
2018-02-21T02:31:03.438Z,47.95
2018-02-21T02:32:06.665Z,47.50
2018-02-21T02:33:09.893Z,45.22
2018-02-21T02:34:13.899Z,45.47
2018-02-21T02:35:18.067Z,47.50
2018-02-21T02:36:21.283Z,45.50
2018-02-21T02:37:25.358Z,46.28
2018-02-21T02:38:40.265Z,45.60
2018-02-21T02:39:50.422Z,47.55
2018-02-21T02:40:53.633Z,44.58
2018-02-21T02:41:56.917Z,48.05
2018-02-21T02:43:00.093Z,45.90
2018-02-21T02:44:03.320Z,48.87
2018-02-21T02:45:07.367Z,50.78
2018-02-21T02:46:10.642Z,49.08
2018-02-21T02:47:13.881Z,47.08
2018-02-21T02:48:17.923Z,47.40
2018-02-21T02:49:21.164Z,46.22
2018-02-21T02:50:24.389Z,48.10
2018-02-21T02:51:27.629Z,47.62
2018-02-21T02:52:31.673Z,49.08
2018-02-21T02:53:34.910Z,46.88
2018-02-21T02:54:38.954Z,48.70
2018-02-21T02:55:42.595Z,53.20
2018-02-21T02:56:45.798Z,52.72
2018-02-21T02:57:49.795Z,48.65
2018-02-21T02:58:53.801Z,48.20
2018-02-21T02:59:58.052Z,48.90
2018-02-21T03:01:01.296Z,48.15
2018-02-21T03:02:05.320Z,48.13
2018-02-21T03:03:08.958Z,45.97
2018-02-21T03:04:12.166Z,48.40
2018-02-21T03:05:16.167Z,45.88
2018-02-21T03:06:20.161Z,45.90
2018-02-21T03:07:23.389Z,46.85
2018-02-21T03:08:26.663Z,48.05
2018-02-21T03:09:29.915Z,48.53
2018-02-21T03:10:33.920Z,46.90
2018-02-21T03:11:37.941Z,46.85
2018-02-21T03:12:41.913Z,49.25
2018-02-21T03:13:45.904Z,46.17
2018-02-21T03:14:49.909Z,48.47
2018-02-21T03:15:53.141Z,50.35
2018-02-21T03:16:56.361Z,49.40
2018-02-21T03:17:59.584Z,46.25
2018-02-21T03:19:02.824Z,48.25
2018-02-21T03:20:06.070Z,44.75
2018-02-21T03:21:09.380Z,49.30
2018-02-21T03:22:12.584Z,49.47
2018-02-21T03:23:15.869Z,46.47
2018-02-21T03:24:19.107Z,50.08
2018-02-21T03:25:22.320Z,44.53
2018-02-21T03:26:25.653Z,46.80
2018-02-21T03:27:29.639Z,45.15
2018-02-21T03:28:33.652Z,46.58
2018-02-21T03:29:36.963Z,49.70
2018-02-21T03:30:40.205Z,49.35
2018-02-21T03:31:44.266Z,45.70
2018-02-21T03:32:47.544Z,45.20
2018-02-21T03:33:50.775Z,45.85
2018-02-21T03:34:54.756Z,45.75
2018-02-21T03:35:57.989Z,43.28
2018-02-21T03:37:01.242Z,45.78
2018-02-21T03:38:05.227Z,44.00
2018-02-21T03:39:08.552Z,45.28
2018-02-21T03:40:11.805Z,44.97
2018-02-21T03:41:15.818Z,42.90
2018-02-21T03:42:19.873Z,43.35
2018-02-21T03:43:23.074Z,43.42
2018-02-21T03:44:26.302Z,42.50
2018-02-21T03:45:29.576Z,45.42
2018-02-21T03:46:32.882Z,44.13
2018-02-21T03:47:36.103Z,42.78
2018-02-21T03:48:39.341Z,42.85
2018-02-21T03:49:42.588Z,43.10
2018-02-21T03:50:46.575Z,43.72
2018-02-21T03:51:49.904Z,42.78
2018-02-21T03:52:53.147Z,42.65
2018-02-21T03:53:56.364Z,41.80
2018-02-21T03:54:59.628Z,40.55
2018-02-21T03:56:03.622Z,39.40
2018-02-21T03:57:07.603Z,42.08
2018-02-21T03:58:10.863Z,42.05
2018-02-21T03:59:14.058Z,43.55
2018-02-21T04:00:17.281Z,42.47
2018-02-21T04:01:21.273Z,43.95
2018-02-21T04:02:25.269Z,43.10
2018-02-21T04:03:29.265Z,40.05
2018-02-21T04:04:32.470Z,43.28
2018-02-21T04:05:35.705Z,41.25
2018-02-21T04:06:38.916Z,43.17
2018-02-21T04:07:42.911Z,42.55
2018-02-21T04:08:46.900Z,43.90
2018-02-21T04:09:50.137Z,44.53
2018-02-21T04:10:53.413Z,43.63
2018-02-21T04:11:56.810Z,44.10
2018-02-21T04:13:00.026Z,42.72
2018-02-21T04:14:03.267Z,45.92
2018-02-21T04:16:16.011Z,43.03
2018-02-21T04:17:19.253Z,42.55
2018-02-21T04:18:22.517Z,40.22
2018-02-21T04:19:26.603Z,43.80
2018-02-21T04:20:29.816Z,42.05
2018-02-21T04:21:33.822Z,40.67
2018-02-21T04:22:38.518Z,42.58
2018-02-21T04:23:42.593Z,42.70
2018-02-21T04:24:45.815Z,42.10
2018-02-21T04:25:49.796Z,43.17
2018-02-21T04:26:53.032Z,42.50
2018-02-21T04:27:56.271Z,42.62
2018-02-21T04:29:00.269Z,42.30
2018-02-21T04:30:04.286Z,43.63
2018-02-21T04:31:07.533Z,42.60
2018-02-21T04:32:10.780Z,44.53
2018-02-21T04:33:13.998Z,40.53
2018-02-21T04:34:17.242Z,43.17
2018-02-21T04:35:20.466Z,39.47
2018-02-21T04:36:23.699Z,40.53
2018-02-21T04:37:27.025Z,41.83
2018-02-21T04:38:30.253Z,42.47
2018-02-21T04:39:34.254Z,39.38
2018-02-21T04:40:38.250Z,40.05
2018-02-21T04:41:42.242Z,39.60
2018-02-21T04:42:46.250Z,41.53
2018-02-21T04:43:49.543Z,41.58
2018-02-21T04:44:53.541Z,42.90
2018-02-21T04:45:56.878Z,38.40
2018-02-21T04:47:00.062Z,40.97
2018-02-21T04:48:03.289Z,41.55
2018-02-21T04:49:07.286Z,39.35
2018-02-21T04:50:11.277Z,40.12
2018-02-21T04:51:15.250Z,39.42
2018-02-21T04:52:18.490Z,39.75
2018-02-21T04:53:21.718Z,37.97
2018-02-21T04:54:39.827Z,39.58
2018-02-21T04:57:27.654Z,40.15
2018-02-21T04:58:36.672Z,40.05
2018-02-21T04:59:41.754Z,41.03
2018-02-21T05:00:46.646Z,39.20
2018-02-21T05:01:49.922Z,36.85
2018-02-21T05:02:53.150Z,36.22
2018-02-21T05:03:57.204Z,34.80
2018-02-21T05:05:00.454Z,35.05
2018-02-21T05:06:03.665Z,34.58
2018-02-21T05:07:06.918Z,36.38
2018-02-21T05:08:10.163Z,33.58
2018-02-21T05:09:13.371Z,33.35
2018-02-21T05:10:16.594Z,32.47
2018-02-21T05:11:19.836Z,32.75
2018-02-21T05:12:23.850Z,34.58
2018-02-21T05:13:27.075Z,34.95
2018-02-21T05:14:30.346Z,35.85
2018-02-21T05:15:33.628Z,35.35
2018-02-21T05:16:36.920Z,35.22
2018-02-21T05:17:40.108Z,32.40
2018-02-21T05:18:43.374Z,31.50
2018-02-21T05:19:46.605Z,32.08
2018-02-21T05:20:50.678Z,31.02
2018-02-21T05:21:53.966Z,34.05
2018-02-21T05:22:57.202Z,32.38
2018-02-21T05:24:00.478Z,34.30
2018-02-21T05:25:03.728Z,33.28
2018-02-21T05:26:07.093Z,32.25
2018-02-21T05:27:10.279Z,33.83
2018-02-21T05:28:13.517Z,33.63
2018-02-21T05:29:17.763Z,34.80
2018-02-21T05:30:21.005Z,32.17
2018-02-21T05:31:24.994Z,33.22
2018-02-21T05:32:29.013Z,36.20
2018-02-21T05:33:32.235Z,34.58
2018-02-21T05:34:35.470Z,34.58
2018-02-21T05:35:39.545Z,36.08
2018-02-21T05:36:43.561Z,33.03
2018-02-21T05:37:47.545Z,32.65
2018-02-21T05:38:50.758Z,32.72
2018-02-21T05:39:53.978Z,35.10
2018-02-21T05:40:57.264Z,34.08
2018-02-21T05:42:00.471Z,36.25
2018-02-21T05:43:03.806Z,35.05
2018-02-21T05:44:07.072Z,37.10
2018-02-21T05:45:10.327Z,37.25
2018-02-21T05:46:13.560Z,37.95
2018-02-21T05:47:17.791Z,38.40
2018-02-21T05:48:21.090Z,38.25
2018-02-21T05:49:24.313Z,37.83
2018-02-21T05:50:27.622Z,36.70
2018-02-21T05:51:30.853Z,38.05
2018-02-21T05:52:34.867Z,36.67
2018-02-21T05:53:38.857Z,38.58
2018-02-21T05:54:42.966Z,39.70
2018-02-21T05:55:46.984Z,36.28
2018-02-21T05:56:50.287Z,37.30
2018-02-21T05:57:53.519Z,38.67
2018-02-21T05:58:56.896Z,39.15
2018-02-21T06:00:00.140Z,36.92
2018-02-21T06:01:03.386Z,37.45
2018-02-21T06:02:07.488Z,38.75
2018-02-21T06:03:11.493Z,38.22
2018-02-21T06:04:15.522Z,37.35
2018-02-21T06:05:18.761Z,40.05
2018-02-21T06:06:22.113Z,38.33
2018-02-21T06:07:25.317Z,40.80
2018-02-21T06:08:28.684Z,39.10
2018-02-21T06:09:31.913Z,39.28
2018-02-21T06:10:35.906Z,39.97
2018-02-21T06:11:40.014Z,37.53
2018-02-21T06:12:44.039Z,38.95
2018-02-21T06:13:47.258Z,37.42
2018-02-21T06:14:50.474Z,39.17
2018-02-21T06:15:53.710Z,40.03
2018-02-21T06:16:56.931Z,39.08
2018-02-21T06:18:00.169Z,37.45
2018-02-21T06:19:03.478Z,38.92
2018-02-21T06:20:06.727Z,41.10
2018-02-21T06:21:09.962Z,42.83
2018-02-21T06:22:13.949Z,39.58
2018-02-21T06:23:17.180Z,42.72
2018-02-21T06:24:20.430Z,38.95
2018-02-21T06:25:23.646Z,39.03
2018-02-21T06:26:26.865Z,42.62
2018-02-21T06:27:30.136Z,41.88
2018-02-21T06:28:33.349Z,42.65
2018-02-21T06:29:36.577Z,43.10
2018-02-21T06:30:39.823Z,41.20
2018-02-21T06:31:43.053Z,43.60
2018-02-21T06:32:46.865Z,40.42
2018-02-21T06:33:50.094Z,44.42
2018-02-21T06:34:54.107Z,44.25
2018-02-21T06:35:58.108Z,42.08
2018-02-21T06:37:02.131Z,44.17
2018-02-21T06:38:05.371Z,45.22
2018-02-21T06:39:08.645Z,43.72
2018-02-21T06:40:11.864Z,44.92
2018-02-21T06:41:15.125Z,50.05
2018-02-21T06:42:18.351Z,45.72
2018-02-21T06:43:21.591Z,45.70
2018-02-21T06:44:25.598Z,45.22
2018-02-21T06:45:29.601Z,46.97
2018-02-21T06:46:33.595Z,44.28
2018-02-21T06:47:36.806Z,46.40
2018-02-21T06:48:40.150Z,45.53
2018-02-21T06:49:43.360Z,45.45
2018-02-21T06:50:47.391Z,43.05
2018-02-21T06:51:50.654Z,48.25
2018-02-21T06:52:53.888Z,46.30
2018-02-21T06:53:57.134Z,47.47
2018-02-21T06:55:00.362Z,49.35
2018-02-21T06:56:03.623Z,47.80
2018-02-21T06:57:06.857Z,46.55
2018-02-21T06:58:10.870Z,47.25
2018-02-21T06:59:14.933Z,47.70
2018-02-21T07:00:18.962Z,47.75
2018-02-21T07:01:23.788Z,43.58
2018-02-21T07:02:34.846Z,46.83
2018-02-21T07:03:38.844Z,45.47
2018-02-21T07:04:42.134Z,45.70
2018-02-21T07:05:46.211Z,44.15
2018-02-21T07:06:49.434Z,45.45
2018-02-21T07:07:52.681Z,45.63
2018-02-21T07:08:56.693Z,45.72
2018-02-21T07:10:00.711Z,46.30
2018-02-21T07:11:04.702Z,46.80
2018-02-21T07:12:08.701Z,47.78
2018-02-21T07:13:12.710Z,48.15
2018-02-21T07:14:16.697Z,44.17
2018-02-21T07:15:20.691Z,44.83
2018-02-21T07:16:23.921Z,44.78
2018-02-21T07:17:27.241Z,47.90
2018-02-21T07:18:30.481Z,47.15
2018-02-21T07:19:33.706Z,45.50
2018-02-21T07:20:36.992Z,43.28
2018-02-21T07:21:40.232Z,43.97
2018-02-21T07:22:43.469Z,45.60
2018-02-21T07:23:46.702Z,46.20
2018-02-21T07:24:50.691Z,43.30
2018-02-21T07:25:53.919Z,47.72
2018-02-21T07:26:57.149Z,45.08
2018-02-21T07:28:00.368Z,46.92
2018-02-21T07:29:04.354Z,47.58
2018-02-21T07:30:08.390Z,45.53
2018-02-21T07:31:11.675Z,45.42
2018-02-21T07:32:14.912Z,45.47
2018-02-21T07:33:18.147Z,43.35
2018-02-21T07:34:21.365Z,43.30
2018-02-21T07:35:24.598Z,44.33
2018-02-21T07:36:27.843Z,44.60
2018-02-21T07:37:31.073Z,41.95
2018-02-21T07:38:34.297Z,44.67
2018-02-21T07:39:37.538Z,44.83
2018-02-21T07:40:40.769Z,44.80
2018-02-21T07:41:44.013Z,47.15
2018-02-21T07:42:47.244Z,44.05
2018-02-21T07:43:50.456Z,45.22
2018-02-21T07:44:53.764Z,43.87
2018-02-21T07:45:57.045Z,43.10
2018-02-21T07:47:00.277Z,44.65
2018-02-21T07:48:04.265Z,45.22
2018-02-21T07:49:07.543Z,45.20
2018-02-21T07:50:10.785Z,44.55
2018-02-21T07:51:14.018Z,43.65
2018-02-21T07:52:17.246Z,42.33
2018-02-21T07:53:20.487Z,46.78
2018-02-21T07:54:23.719Z,42.38
2018-02-21T07:55:26.937Z,44.70
2018-02-21T07:56:30.185Z,45.63
2018-02-21T07:57:33.412Z,44.53
2018-02-21T07:58:36.656Z,45.63
2018-02-21T07:59:39.878Z,45.22
2018-02-21T08:00:43.176Z,43.45
2018-02-21T08:01:46.507Z,43.17
2018-02-21T08:02:49.769Z,43.60
2018-02-21T08:03:53.762Z,42.33
2018-02-21T08:04:57.769Z,44.53
2018-02-21T08:06:00.978Z,41.37
2018-02-21T08:07:04.204Z,45.53
2018-02-21T08:08:07.441Z,45.17
2018-02-21T08:09:10.821Z,44.67
2018-02-21T08:10:14.035Z,44.38
2018-02-21T08:11:17.267Z,44.92
2018-02-21T08:12:21.285Z,44.47
2018-02-21T08:13:24.546Z,44.17
2018-02-21T08:14:28.524Z,44.13
2018-02-21T08:15:31.796Z,45.08
2018-02-21T08:16:34.993Z,44.75
2018-02-21T08:17:38.269Z,45.00
2018-02-21T08:18:41.457Z,44.22
2018-02-21T08:19:44.694Z,47.80
2018-02-21T08:20:47.943Z,44.65
2018-02-21T08:21:51.162Z,42.47
2018-02-21T08:22:54.419Z,44.13
2018-02-21T08:23:57.659Z,45.53
2018-02-21T08:25:00.952Z,46.92
2018-02-21T08:26:04.186Z,44.13
2018-02-21T08:27:07.407Z,44.58
2018-02-21T08:28:12.272Z,44.50
2018-02-21T08:29:15.511Z,44.65
2018-02-21T08:30:18.762Z,48.85
2018-02-21T08:31:22.003Z,45.80
2018-02-21T08:32:25.997Z,49.55
2018-02-21T08:33:29.259Z,45.28
2018-02-21T08:34:32.446Z,43.63
2018-02-21T08:35:35.666Z,44.83
2018-02-21T08:36:39.672Z,47.60
2018-02-21T08:37:43.654Z,45.72
2018-02-21T08:38:47.647Z,44.13
2018-02-21T08:39:50.882Z,44.35
2018-02-21T08:40:54.109Z,44.05
2018-02-21T08:41:57.370Z,44.55
2018-02-21T08:43:00.604Z,44.70
2018-02-21T08:44:04.582Z,45.17
2018-02-21T08:45:08.657Z,47.42
2018-02-21T08:46:11.849Z,44.00
2018-02-21T08:47:15.130Z,46.17
2018-02-21T08:48:18.317Z,45.00
2018-02-21T08:49:23.035Z,43.33
2018-02-21T08:50:27.844Z,47.25
2018-02-21T08:51:31.052Z,46.92
2018-02-21T08:52:34.278Z,45.40
2018-02-21T08:53:37.517Z,43.47
2018-02-21T08:54:41.499Z,44.55
2018-02-21T08:55:44.725Z,44.53
2018-02-21T08:56:47.957Z,49.00
2018-02-21T08:57:51.204Z,46.85
2018-02-21T08:58:54.429Z,45.97
2018-02-21T08:59:57.679Z,45.80
2018-02-21T09:01:00.980Z,51.05
2018-02-21T09:02:04.259Z,46.85
2018-02-21T09:03:07.469Z,47.78
2018-02-21T09:04:10.703Z,46.08
2018-02-21T09:05:13.953Z,46.90
2018-02-21T09:06:17.965Z,43.47
2018-02-21T09:07:21.215Z,48.15
2018-02-21T09:08:24.480Z,47.38
2018-02-21T09:09:27.709Z,51.67
2018-02-21T09:10:31.706Z,48.15
2018-02-21T09:11:35.709Z,46.28
2018-02-21T09:12:38.951Z,46.63
2018-02-21T09:13:42.175Z,46.88
2018-02-21T09:14:46.171Z,46.10
2018-02-21T09:15:50.199Z,45.38
2018-02-21T09:16:53.457Z,46.53
2018-02-21T09:17:56.692Z,45.05
2018-02-21T09:18:59.958Z,45.30
2018-02-21T09:20:03.212Z,44.97
2018-02-21T09:21:06.500Z,45.50
2018-02-21T09:22:10.486Z,45.25
2018-02-21T09:23:14.488Z,45.25
2018-02-21T09:24:17.754Z,48.08
2018-02-21T09:25:20.977Z,45.30
2018-02-21T09:26:24.216Z,46.10
2018-02-21T09:27:27.494Z,47.62
2018-02-21T09:28:30.705Z,44.85
2018-02-21T09:29:34.692Z,43.53
2018-02-21T09:30:37.938Z,48.00
2018-02-21T09:31:41.234Z,48.70
2018-02-21T09:32:44.455Z,48.08
2018-02-21T09:33:48.485Z,46.25
2018-02-21T09:34:51.710Z,47.45
2018-02-21T09:35:54.942Z,44.20
2018-02-21T09:36:58.172Z,46.90
2018-02-21T09:38:01.388Z,47.28
2018-02-21T09:39:05.388Z,47.85
2018-02-21T09:40:09.396Z,47.53
2018-02-21T09:41:13.408Z,44.55
2018-02-21T09:42:17.397Z,46.65
2018-02-21T09:43:21.390Z,47.97
2018-02-21T09:44:25.392Z,44.22
2018-02-21T09:45:29.386Z,45.83
2018-02-21T09:46:32.598Z,46.13
2018-02-21T09:47:35.824Z,47.55
2018-02-21T09:48:39.038Z,43.55
2018-02-21T09:49:43.033Z,44.95
2018-02-21T09:50:46.248Z,49.30
2018-02-21T09:51:49.473Z,48.67
2018-02-21T09:52:52.736Z,47.00
2018-02-21T09:53:56.702Z,48.85
2018-02-21T09:55:00.676Z,49.63
2018-02-21T09:56:03.902Z,48.85
2018-02-21T09:57:07.134Z,47.58
2018-02-21T09:58:10.363Z,45.25
2018-02-21T09:59:13.599Z,46.75
2018-02-21T10:00:16.828Z,46.15
2018-02-21T10:01:20.046Z,45.22
2018-02-21T10:02:23.280Z,45.42
2018-02-21T10:03:27.276Z,45.33
2018-02-21T10:04:31.268Z,42.92
2018-02-21T10:05:35.274Z,46.00
2018-02-21T10:06:39.253Z,44.25
2018-02-21T10:07:42.494Z,44.88
2018-02-21T10:08:45.736Z,46.60
2018-02-21T10:09:49.797Z,49.20
2018-02-21T10:10:53.093Z,47.33
2018-02-21T10:11:56.310Z,48.50
2018-02-21T10:13:00.312Z,46.03
2018-02-21T10:14:04.306Z,44.40
2018-02-21T10:15:08.339Z,46.28
2018-02-21T10:16:12.369Z,49.38
2018-02-21T10:17:15.648Z,46.72
2018-02-21T10:18:18.855Z,45.80
2018-02-21T10:19:22.079Z,49.17
2018-02-21T10:20:25.314Z,47.05
2018-02-21T10:21:28.544Z,47.85
2018-02-21T10:22:31.798Z,47.03
2018-02-21T10:23:35.036Z,45.03
2018-02-21T10:24:38.248Z,45.15
2018-02-21T10:25:41.561Z,42.88
2018-02-21T10:26:45.554Z,47.55
2018-02-21T10:27:49.594Z,45.20
2018-02-21T10:28:52.893Z,47.83
2018-02-21T10:29:56.162Z,47.72
2018-02-21T10:30:59.401Z,49.22
2018-02-21T10:32:02.643Z,46.70
2018-02-21T10:33:05.883Z,47.45
2018-02-21T10:34:09.900Z,47.45
2018-02-21T10:35:13.869Z,45.45
2018-02-21T10:36:17.206Z,46.25
2018-02-21T10:37:20.440Z,45.00
2018-02-21T10:38:24.428Z,49.33
2018-02-21T10:39:28.449Z,46.78
2018-02-21T10:40:33.436Z,47.22
2018-02-21T10:41:36.698Z,47.95
2018-02-21T10:42:39.956Z,48.40
2018-02-21T10:43:43.934Z,49.30
2018-02-21T10:44:47.914Z,43.22
2018-02-21T10:45:52.674Z,46.63
2018-02-21T10:46:55.923Z,49.92
2018-02-21T10:47:59.147Z,51.75
2018-02-21T10:49:02.388Z,50.30
2018-02-21T10:50:05.614Z,46.60
2018-02-21T10:51:08.857Z,47.00
2018-02-21T10:52:12.126Z,48.13
2018-02-21T10:53:15.345Z,46.05
2018-02-21T10:54:19.338Z,45.83
2018-02-21T10:55:23.356Z,46.53
2018-02-21T10:56:26.569Z,46.75
2018-02-21T10:57:29.835Z,48.63
2018-02-21T10:58:33.076Z,49.05
2018-02-21T10:59:36.319Z,49.17
2018-02-21T11:00:45.138Z,52.05
2018-02-21T11:01:48.384Z,49.28
2018-02-21T11:02:51.592Z,48.70
2018-02-21T11:03:54.812Z,51.63
2018-02-21T11:04:58.088Z,49.22
2018-02-21T11:06:01.399Z,48.25
2018-02-21T11:07:05.420Z,48.53
2018-02-21T11:08:08.652Z,47.83
2018-02-21T11:09:11.947Z,46.78
2018-02-21T11:10:15.177Z,49.13
2018-02-21T11:11:18.414Z,46.08
2018-02-21T11:12:21.667Z,46.22
2018-02-21T11:13:24.921Z,45.12
2018-02-21T11:14:28.133Z,48.08
2018-02-21T11:15:31.380Z,45.92
2018-02-21T11:16:34.633Z,45.33
2018-02-21T11:17:37.852Z,44.63
2018-02-21T11:18:41.097Z,45.83
2018-02-21T11:19:44.329Z,45.58
2018-02-21T11:20:47.545Z,44.65
2018-02-21T11:21:50.790Z,45.97
2018-02-21T11:22:53.998Z,42.03
2018-02-21T11:23:57.239Z,45.65
2018-02-21T11:25:00.461Z,41.05
2018-02-21T11:26:03.704Z,43.35
2018-02-21T11:27:07.692Z,41.88
2018-02-21T11:28:11.694Z,45.40
2018-02-21T11:29:15.687Z,42.55
2018-02-21T11:30:18.911Z,42.05
2018-02-21T11:31:22.174Z,43.30
2018-02-21T11:32:26.162Z,43.22
2018-02-21T11:33:30.183Z,45.15
2018-02-21T11:34:33.416Z,43.85
2018-02-21T11:35:38.207Z,43.67
2018-02-21T11:36:41.462Z,44.75
2018-02-21T11:37:44.707Z,45.28
2018-02-21T11:38:47.936Z,44.22
2018-02-21T11:39:51.163Z,44.17
2018-02-21T11:40:54.407Z,45.38
2018-02-21T11:41:57.650Z,44.78
2018-02-21T11:43:00.864Z,45.20
2018-02-21T11:44:04.148Z,43.92
2018-02-21T11:45:07.411Z,44.00
2018-02-21T11:46:10.607Z,44.63
2018-02-21T11:47:13.944Z,42.85
2018-02-21T11:48:17.185Z,44.00
2018-02-21T11:49:20.404Z,42.58
2018-02-21T11:50:23.656Z,44.58
2018-02-21T11:51:26.878Z,44.83
2018-02-21T11:52:30.136Z,45.10
2018-02-21T11:53:33.363Z,44.97
2018-02-21T11:54:36.586Z,47.85
2018-02-21T11:55:39.794Z,46.10
2018-02-21T11:56:43.053Z,45.33
2018-02-21T11:57:46.266Z,44.85
2018-02-21T11:58:49.482Z,47.10
2018-02-21T11:59:53.461Z,43.95
2018-02-21T12:00:56.673Z,47.88
2018-02-21T12:02:00.674Z,44.60
2018-02-21T12:03:04.666Z,45.83
2018-02-21T12:04:07.901Z,46.37
2018-02-21T12:05:11.137Z,45.35
2018-02-21T12:06:15.980Z,46.78
2018-02-21T12:07:19.205Z,45.17
2018-02-21T12:08:22.450Z,46.22
2018-02-21T12:09:25.680Z,46.92
2018-02-21T12:10:29.018Z,44.53
2018-02-21T12:11:32.251Z,41.85
2018-02-21T12:12:35.501Z,41.97
2018-02-21T12:13:38.724Z,42.42
2018-02-21T12:14:42.038Z,43.17
2018-02-21T12:15:45.267Z,43.75
2018-02-21T12:16:48.505Z,41.35
2018-02-21T12:17:51.751Z,43.72
2018-02-21T12:18:54.973Z,42.53
2018-02-21T12:19:58.261Z,45.95
2018-02-21T12:21:01.492Z,42.75
2018-02-21T12:22:04.734Z,43.53
2018-02-21T12:23:07.969Z,45.90
2018-02-21T12:24:11.203Z,42.97
2018-02-21T12:25:14.435Z,43.75
2018-02-21T12:26:17.680Z,43.80
2018-02-21T12:27:20.893Z,44.15
2018-02-21T12:28:24.129Z,41.95
2018-02-21T12:29:27.407Z,42.35
2018-02-21T12:30:30.604Z,43.40
2018-02-21T12:31:33.869Z,41.35
2018-02-21T12:32:39.000Z,40.20
2018-02-21T12:33:42.220Z,39.65
2018-02-21T12:34:45.449Z,41.80
2018-02-21T12:35:49.469Z,41.13
2018-02-21T12:36:52.901Z,41.55
2018-02-21T12:37:56.122Z,38.78
2018-02-21T12:39:05.011Z,36.47
2018-02-21T12:40:08.237Z,36.50
2018-02-21T12:41:17.247Z,38.08
2018-02-21T12:42:21.233Z,38.10
2018-02-21T12:43:25.231Z,40.65
2018-02-21T12:44:29.215Z,34.58
2018-02-21T12:45:32.430Z,34.75
2018-02-21T12:46:35.667Z,36.13
2018-02-21T12:47:38.915Z,36.13
2018-02-21T12:48:42.132Z,34.00
2018-02-21T12:49:45.359Z,38.85
2018-02-21T12:50:49.360Z,37.03
2018-02-21T12:51:53.349Z,34.80
2018-02-21T12:52:57.337Z,37.50
2018-02-21T12:54:01.327Z,35.08
2018-02-21T12:55:04.551Z,38.28
2018-02-21T12:56:07.777Z,37.33
2018-02-21T12:57:10.999Z,38.53
2018-02-21T12:58:15.034Z,38.88
2018-02-21T12:59:18.274Z,39.78
2018-02-21T13:00:21.481Z,38.92
2018-02-21T13:01:24.713Z,37.20
2018-02-21T13:02:27.994Z,38.60
2018-02-21T13:03:31.219Z,38.88
2018-02-21T13:04:35.209Z,37.80
2018-02-21T13:05:39.187Z,38.08
2018-02-21T13:06:42.407Z,37.10
2018-02-21T13:07:45.627Z,41.47
2018-02-21T13:08:48.865Z,39.55
2018-02-21T13:09:52.847Z,40.53
2018-02-21T13:10:56.846Z,39.45
2018-02-21T13:12:00.877Z,39.65
2018-02-21T13:13:04.847Z,42.10
2018-02-21T13:14:08.092Z,38.88
2018-02-21T13:15:11.334Z,37.50
2018-02-21T13:16:15.393Z,38.38
2018-02-21T13:17:18.595Z,40.17
2018-02-21T13:18:21.864Z,43.28
2018-02-21T13:19:25.055Z,44.63
2018-02-21T13:20:28.429Z,40.30
2018-02-21T13:21:31.626Z,39.75
2018-02-21T13:22:34.849Z,39.10
2018-02-21T13:23:38.078Z,38.15
2018-02-21T13:24:41.295Z,38.72
2018-02-21T13:25:45.290Z,38.15
2018-02-21T13:26:49.276Z,36.50
2018-02-21T13:27:52.496Z,38.08
2018-02-21T13:28:55.733Z,38.58
2018-02-21T13:29:58.968Z,40.80
2018-02-21T13:31:02.192Z,41.00
2018-02-21T13:32:05.428Z,45.42
2018-02-21T13:33:08.655Z,40.63
2018-02-21T13:34:11.860Z,45.10
2018-02-21T13:35:15.859Z,42.25
2018-02-21T13:36:19.076Z,43.33
2018-02-21T13:37:22.300Z,41.83
2018-02-21T13:38:25.515Z,44.05
2018-02-21T13:39:29.516Z,41.28
2018-02-21T13:40:33.545Z,46.30
2018-02-21T13:41:36.768Z,44.63